Time;durP1;ratioP1;P1;durP2;ratioP2;P2;SDS_P1;SDS_P2;PMS_P1;PMS_P2;Temp;Humidity;BMP_temperature;BMP_pressure;BME280_temperature;BME280_humidity;BME280_pressure;Samples;Min_cycle;Max_cycle;Signal;HPM_P1;HPM_P2
2023/05/27 00:01:46;;;;;;;9.57;2.70;;;;;;;;;;5025904;28;20033;-78
2023/05/27 00:04:11;;;;;;;9.57;2.78;;;;;;;;;;5031050;28;20116;-78
2023/05/27 00:06:36;;;;;;;10.95;3.05;;;;;;;;;;5025442;28;20049;-78
2023/05/27 00:09:02;;;;;;;13.02;3.50;;;;;;;;;;5027105;28;20021;-79
2023/05/27 00:11:27;;;;;;;13.27;3.17;;;;;;;;;;5024511;28;20046;-78
2023/05/27 00:13:52;;;;;;;13.35;3.72;;;;;;;;;;5029993;28;20033;-78
2023/05/27 00:16:19;;;;;;;13.95;4.20;;;;;;;;;;5024587;28;20037;-78
2023/05/27 00:18:45;;;;;;;13.57;3.53;;;;;;;;;;5033567;28;20120;-78
2023/05/27 00:21:10;;;;;;;9.35;2.83;;;;;;;;;;5026226;28;20500;-78
2023/05/27 00:23:36;;;;;;;9.68;3.08;;;;;;;;;;5024909;28;20037;-79
2023/05/27 00:26:01;;;;;;;12.60;2.92;;;;;;;;;;5025504;28;20048;-79
2023/05/27 00:28:28;;;;;;;9.75;3.30;;;;;;;;;;5029594;28;20036;-78
2023/05/27 00:30:54;;;;;;;9.15;2.67;;;;;;;;;;5024851;28;20029;-78
2023/05/27 00:33:21;;;;;;;12.75;3.40;;;;;;;;;;5026101;28;20079;-78
2023/05/27 00:35:46;;;;;;;10.23;2.78;;;;;;;;;;5007697;28;20173;-77
2023/05/27 00:38:11;;;;;;;10.18;3.05;;;;;;;;;;5026801;28;20028;-78
2023/05/27 00:40:39;;;;;;;9.68;3.30;;;;;;;;;;5028552;28;20030;-78
2023/05/27 00:43:04;;;;;;;10.18;3.63;;;;;;;;;;5034159;28;20025;-78
2023/05/27 00:45:30;;;;;;;10.98;3.22;;;;;;;;;;5026018;28;20037;-79
2023/05/27 00:47:55;;;;;;;10.15;3.08;;;;;;;;;;5026128;28;20057;-78
2023/05/27 00:50:21;;;;;;;13.13;4.03;;;;;;;;;;5013331;28;20045;-78
2023/05/27 00:52:47;;;;;;;11.85;3.78;;;;;;;;;;5026472;28;20037;-78
2023/05/27 00:55:12;;;;;;;13.35;3.20;;;;;;;;;;5022600;28;20026;-78
2023/05/27 00:57:38;;;;;;;16.77;3.90;;;;;;;;;;5010119;28;20436;-78
2023/05/27 01:00:09;;;;;;;17.98;3.83;;;;;;;;;;5005989;28;20116;-78
2023/05/27 01:02:34;;;;;;;13.32;3.35;;;;;;;;;;5026158;28;20021;-77
2023/05/27 01:05:00;;;;;;;13.40;3.22;;;;;;;;;;5025136;28;20032;-78
2023/05/27 01:07:25;;;;;;;15.77;3.58;;;;;;;;;;5026100;28;20058;-78
2023/05/27 01:09:58;;;;;;;13.13;3.88;;;;;;;;;;5029439;28;20484;-78
2023/05/27 01:12:34;;;;;;;19.40;4.10;;;;;;;;;;5024013;28;20408;-78
2023/05/27 01:15:02;;;;;;;11.60;3.97;;;;;;;;;;5020134;28;20116;-78
2023/05/27 01:17:30;;;;;;;13.50;3.33;;;;;;;;;;5023336;28;20045;-78
2023/05/27 01:19:56;;;;;;;12.25;4.05;;;;;;;;;;5015993;28;20025;-78
2023/05/27 01:22:25;;;;;;;10.52;2.90;;;;;;;;;;5022409;28;20030;-78
2023/05/27 01:24:51;;;;;;;12.80;3.95;;;;;;;;;;5024301;28;20033;-78
2023/05/27 01:27:16;;;;;;;13.55;3.13;;;;;;;;;;5026473;28;20037;-78
2023/05/27 01:29:42;;;;;;;10.40;3.88;;;;;;;;;;5007800;28;20082;-78
2023/05/27 01:32:09;;;;;;;12.82;3.55;;;;;;;;;;5024862;28;20646;-78
2023/05/27 01:34:39;;;;;;;11.05;2.90;;;;;;;;;;5022635;28;20164;-78
2023/05/27 01:37:06;;;;;;;9.52;3.63;;;;;;;;;;5023873;28;20084;-78
2023/05/27 01:39:32;;;;;;;13.40;3.28;;;;;;;;;;5023276;28;20029;-78
2023/05/27 01:41:59;;;;;;;16.02;4.53;;;;;;;;;;5024611;28;20052;-77
2023/05/27 01:44:24;;;;;;;20.10;4.15;;;;;;;;;;5023676;28;20096;-77
2023/05/27 01:46:49;;;;;;;8.10;2.97;;;;;;;;;;5023458;28;20444;-78
2023/05/27 01:49:14;;;;;;;11.75;3.97;;;;;;;;;;5025469;28;20026;-78
2023/05/27 01:51:39;;;;;;;9.40;3.58;;;;;;;;;;5020975;28;20496;-77
2023/05/27 01:54:05;;;;;;;9.07;4.15;;;;;;;;;;5024907;28;20041;-78
2023/05/27 01:56:31;;;;;;;12.48;3.53;;;;;;;;;;5021398;28;20040;-78
2023/05/27 01:58:56;;;;;;;11.30;3.40;;;;;;;;;;5026887;28;20041;-78
2023/05/27 02:01:22;;;;;;;10.75;3.80;;;;;;;;;;5032805;28;20030;-78
2023/05/27 02:03:48;;;;;;;11.02;3.78;;;;;;;;;;5022053;28;20080;-78
2023/05/27 02:06:13;;;;;;;10.73;3.53;;;;;;;;;;5019988;28;20081;-78
2023/05/27 02:08:39;;;;;;;15.98;4.40;;;;;;;;;;5020825;28;20026;-78
2023/05/27 02:11:04;;;;;;;13.70;4.30;;;;;;;;;;5007492;28;20033;-77
2023/05/27 02:13:29;;;;;;;11.57;3.85;;;;;;;;;;5021984;28;20034;-78
2023/05/27 02:15:55;;;;;;;11.45;3.83;;;;;;;;;;5007537;28;20117;-78
2023/05/27 02:18:20;;;;;;;13.73;3.97;;;;;;;;;;5024086;28;20071;-77
2023/05/27 02:20:46;;;;;;;15.15;4.63;;;;;;;;;;5020783;28;20073;-77
2023/05/27 02:23:11;;;;;;;12.65;3.90;;;;;;;;;;5025498;28;20038;-78
2023/05/27 02:25:36;;;;;;;11.25;3.47;;;;;;;;;;5024437;28;20025;-78
2023/05/27 02:28:04;;;;;;;11.68;3.97;;;;;;;;;;5025579;28;20022;-78
2023/05/27 02:30:31;;;;;;;17.05;3.70;;;;;;;;;;5006453;28;20038;-77
2023/05/27 02:32:56;;;;;;;11.45;3.55;;;;;;;;;;5021724;28;20030;-78
2023/05/27 02:35:21;;;;;;;12.27;3.72;;;;;;;;;;5006682;28;20033;-78
2023/05/27 02:37:46;;;;;;;10.50;3.67;;;;;;;;;;5026138;28;20030;-78
2023/05/27 02:40:12;;;;;;;14.20;4.50;;;;;;;;;;5023290;28;20515;-78
2023/05/27 02:42:37;;;;;;;14.70;4.07;;;;;;;;;;5026159;28;20029;-78
2023/05/27 02:45:04;;;;;;;12.00;4.13;;;;;;;;;;5020444;28;20049;-78
2023/05/27 02:47:29;;;;;;;16.05;4.45;;;;;;;;;;5031095;28;20036;-78
2023/05/27 02:49:54;;;;;;;16.45;4.22;;;;;;;;;;5035199;28;20044;-78
2023/05/27 02:52:22;;;;;;;13.50;3.95;;;;;;;;;;5026642;28;20076;-78
2023/05/27 02:54:47;;;;;;;13.45;4.10;;;;;;;;;;5029803;28;20430;-78
2023/05/27 02:57:13;;;;;;;13.93;4.50;;;;;;;;;;5029266;28;20859;-78
2023/05/27 02:59:38;;;;;;;14.38;4.80;;;;;;;;;;5027560;28;20049;-78
2023/05/27 03:02:04;;;;;;;15.02;4.68;;;;;;;;;;5027410;28;20029;-78
2023/05/27 03:04:31;;;;;;;15.65;4.35;;;;;;;;;;5035615;28;20048;-78
2023/05/27 03:06:57;;;;;;;18.02;5.38;;;;;;;;;;5029413;28;20418;-78
2023/05/27 03:09:22;;;;;;;14.65;4.53;;;;;;;;;;5028777;28;20025;-78
2023/05/27 03:11:47;;;;;;;14.15;5.30;;;;;;;;;;5029228;28;20430;-77
2023/05/27 03:14:12;;;;;;;10.15;3.95;;;;;;;;;;5028427;28;20076;-78
2023/05/27 03:16:37;;;;;;;10.38;4.45;;;;;;;;;;5024107;28;20049;-78
2023/05/27 03:19:03;;;;;;;11.15;4.75;;;;;;;;;;5010405;28;20083;-78
2023/05/27 03:21:28;;;;;;;13.40;4.32;;;;;;;;;;5023745;28;20491;-79
2023/05/27 03:23:54;;;;;;;14.10;5.43;;;;;;;;;;5028790;28;20079;-78
2023/05/27 03:26:20;;;;;;;10.30;3.60;;;;;;;;;;5026592;28;20077;-77
2023/05/27 03:28:46;;;;;;;13.30;4.32;;;;;;;;;;5034830;28;20024;-78
2023/05/27 03:31:12;;;;;;;15.68;4.20;;;;;;;;;;5010992;28;20412;-78
2023/05/27 03:33:52;;;;;;;15.18;3.92;;;;;;;;;;5011352;28;20125;-78
2023/05/27 03:36:17;;;;;;;12.82;4.05;;;;;;;;;;5024669;28;20069;-78
2023/05/27 03:38:43;;;;;;;12.13;3.92;;;;;;;;;;5026571;28;20040;-78
2023/05/27 03:41:08;;;;;;;13.68;4.72;;;;;;;;;;5008985;28;20030;-79
2023/05/27 03:43:34;;;;;;;11.45;3.70;;;;;;;;;;5031678;28;20061;-77
2023/05/27 03:46:00;;;;;;;9.73;3.50;;;;;;;;;;5033505;28;20105;-79
2023/05/27 03:48:25;;;;;;;16.48;5.15;;;;;;;;;;5030410;28;20029;-77
2023/05/27 03:50:51;;;;;;;16.17;5.38;;;;;;;;;;5033648;28;20109;-77
2023/05/27 03:53:16;;;;;;;12.65;4.13;;;;;;;;;;5025384;28;20045;-77
2023/05/27 03:55:41;;;;;;;11.35;3.53;;;;;;;;;;5026355;28;20029;-77
2023/05/27 03:58:06;;;;;;;13.30;4.28;;;;;;;;;;5026001;28;20483;-77
2023/05/27 04:00:32;;;;;;;12.77;4.47;;;;;;;;;;5029339;28;20053;-78
2023/05/27 04:02:58;;;;;;;12.52;4.22;;;;;;;;;;5033761;28;20018;-77
2023/05/27 04:05:23;;;;;;;16.35;5.38;;;;;;;;;;5024542;28;20742;-77
2023/05/27 04:07:48;;;;;;;11.70;4.25;;;;;;;;;;5041687;28;20025;-76
2023/05/27 04:10:13;;;;;;;12.32;4.82;;;;;;;;;;5024151;28;20088;-77
2023/05/27 04:12:40;;;;;;;10.20;3.70;;;;;;;;;;5025107;28;20033;-76
2023/05/27 04:15:06;;;;;;;14.50;4.65;;;;;;;;;;5020562;28;20096;-77
2023/05/27 04:17:31;;;;;;;10.07;4.03;;;;;;;;;;5024304;28;20060;-77
2023/05/27 04:19:56;;;;;;;15.35;5.25;;;;;;;;;;5020961;28;20040;-77
2023/05/27 04:22:23;;;;;;;14.10;5.13;;;;;;;;;;5023563;28;20148;-76
2023/05/27 04:24:48;;;;;;;12.75;4.43;;;;;;;;;;5032520;28;20156;-77
2023/05/27 04:27:16;;;;;;;14.40;3.83;;;;;;;;;;5009494;28;20029;-78
2023/05/27 04:29:43;;;;;;;11.38;3.83;;;;;;;;;;5029090;28;20030;-76
2023/05/27 04:32:09;;;;;;;18.98;5.40;;;;;;;;;;5007687;28;20099;-77
2023/05/27 04:34:35;;;;;;;16.98;4.65;;;;;;;;;;5023762;28;20036;-76
2023/05/27 04:37:00;;;;;;;14.55;4.70;;;;;;;;;;5025852;28;20419;-77
2023/05/27 04:39:26;;;;;;;20.15;5.78;;;;;;;;;;5026726;28;20029;-75
2023/05/27 04:41:51;;;;;;;14.73;4.90;;;;;;;;;;5025365;28;20502;-77
2023/05/27 04:44:26;;;;;;;12.98;4.60;;;;;;;;;;5022716;28;20048;-77
2023/05/27 04:46:53;;;;;;;13.18;4.90;;;;;;;;;;5024161;28;20033;-77
2023/05/27 04:49:18;;;;;;;16.63;4.90;;;;;;;;;;5024222;28;20048;-76
2023/05/27 04:51:44;;;;;;;13.02;4.35;;;;;;;;;;5026330;28;20029;-76
2023/05/27 04:54:11;;;;;;;17.70;5.15;;;;;;;;;;5019793;28;20117;-77
2023/05/27 04:56:37;;;;;;;11.32;4.82;;;;;;;;;;5027095;28;20037;-77
2023/05/27 04:59:04;;;;;;;11.40;4.00;;;;;;;;;;5026498;28;20029;-77
2023/05/27 05:01:48;;;;;;;14.90;4.85;;;;;;;;;;5008525;28;20052;-77
2023/05/27 05:04:16;;;;;;;13.48;4.88;;;;;;;;;;5005286;28;20064;-77
2023/05/27 05:06:58;;;;;;;13.15;4.45;;;;;;;;;;5025471;28;20032;-77
2023/05/27 05:09:24;;;;;;;16.00;4.80;;;;;;;;;;5021870;28;20083;-78
2023/05/27 05:11:50;;;;;;;14.60;4.75;;;;;;;;;;5024271;28;20500;-77
2023/05/27 05:14:16;;;;;;;14.65;4.28;;;;;;;;;;5022296;28;20040;-77
2023/05/27 05:16:41;;;;;;;17.25;4.60;;;;;;;;;;5022920;28;20076;-78
2023/05/27 05:19:07;;;;;;;13.93;3.50;;;;;;;;;;5024349;28;20389;-77
2023/05/27 05:21:36;;;;;;;13.45;3.47;;;;;;;;;;5025616;28;20522;-77
2023/05/27 05:24:03;;;;;;;14.80;4.47;;;;;;;;;;5021465;28;20109;-77
2023/05/27 05:26:29;;;;;;;14.20;4.00;;;;;;;;;;5023882;28;20030;-77
2023/05/27 05:28:55;;;;;;;9.77;3.30;;;;;;;;;;5023520;28;20526;-78
2023/05/27 05:31:20;;;;;;;13.73;3.95;;;;;;;;;;5004506;28;20518;-77
2023/05/27 05:33:46;;;;;;;14.20;4.15;;;;;;;;;;5027713;28;20467;-77
2023/05/27 05:36:11;;;;;;;7.85;3.38;;;;;;;;;;5024419;28;20026;-78
2023/05/27 05:38:50;;;;;;;14.10;3.33;;;;;;;;;;5021736;28;20030;-77
2023/05/27 05:41:15;;;;;;;11.20;3.70;;;;;;;;;;5024384;28;20042;-78
2023/05/27 05:43:42;;;;;;;12.45;4.10;;;;;;;;;;5006378;28;20483;-77
2023/05/27 05:46:07;;;;;;;9.23;4.28;;;;;;;;;;5024885;28;20025;-78
2023/05/27 05:48:33;;;;;;;10.05;3.10;;;;;;;;;;5029271;28;20030;-78
2023/05/27 05:51:00;;;;;;;10.77;3.45;;;;;;;;;;5032659;28;20017;-78
2023/05/27 05:53:26;;;;;;;16.25;3.42;;;;;;;;;;5020931;28;20037;-78
2023/05/27 05:55:51;;;;;;;12.18;3.42;;;;;;;;;;5031346;28;20025;-78
2023/05/27 05:58:19;;;;;;;14.82;3.65;;;;;;;;;;5025181;28;20037;-78
2023/05/27 06:00:46;;;;;;;10.77;4.32;;;;;;;;;;5023053;28;20594;-78
2023/05/27 06:03:35;;;;;;;12.35;3.20;;;;;;;;;;5031474;28;20117;-78
2023/05/27 06:06:02;;;;;;;14.30;3.40;;;;;;;;;;5030460;28;20029;-78
2023/05/27 06:08:28;;;;;;;13.60;3.38;;;;;;;;;;5007930;28;20051;-78
2023/05/27 06:11:04;;;;;;;11.07;3.30;;;;;;;;;;5026262;28;20083;-78
2023/05/27 06:13:32;;;;;;;12.10;2.95;;;;;;;;;;5023838;28;20030;-78
2023/05/27 06:15:59;;;;;;;14.45;3.85;;;;;;;;;;5024241;28;20026;-78
2023/05/27 06:18:24;;;;;;;14.52;2.88;;;;;;;;;;5029670;28;20415;-78
2023/05/27 06:20:49;;;;;;;10.55;2.83;;;;;;;;;;5029657;28;20570;-78
2023/05/27 06:23:15;;;;;;;11.13;3.28;;;;;;;;;;5010366;28;20022;-78
2023/05/27 06:26:04;;;;;;;9.90;2.78;;;;;;;;;;5026057;28;20100;-78
2023/05/27 06:28:35;;;;;;;14.98;3.33;;;;;;;;;;5027576;28;20022;-79
2023/05/27 06:31:01;;;;;;;9.95;3.13;;;;;;;;;;5030484;28;20026;-76
2023/05/27 06:33:26;;;;;;;9.43;2.17;;;;;;;;;;5029843;28;20510;-79
2023/05/27 06:35:51;;;;;;;13.95;2.70;;;;;;;;;;5032903;28;20036;-79
2023/05/27 06:38:17;;;;;;;9.63;2.17;;;;;;;;;;5025061;28;20029;-79
2023/05/27 06:40:44;;;;;;;10.10;2.40;;;;;;;;;;5012743;28;20402;-80
2023/05/27 06:43:10;;;;;;;8.38;2.90;;;;;;;;;;5026308;28;20059;-79
2023/05/27 06:45:59;;;;;;;9.40;2.70;;;;;;;;;;5022269;28;20028;-79
2023/05/27 06:48:33;;;;;;;9.55;2.80;;;;;;;;;;5005749;28;20022;-79
2023/05/27 06:50:59;;;;;;;11.27;2.70;;;;;;;;;;5024886;28;20026;-79
2023/05/27 06:53:24;;;;;;;11.73;2.47;;;;;;;;;;5025178;28;20263;-78
2023/05/27 06:55:53;;;;;;;13.70;2.78;;;;;;;;;;5032056;28;20033;-78
2023/05/27 06:58:37;;;;;;;10.90;2.63;;;;;;;;;;5029911;28;20052;-77
2023/05/27 07:01:08;;;;;;;12.88;3.17;;;;;;;;;;5029767;28;20064;-79
2023/05/27 07:03:38;;;;;;;16.73;3.47;;;;;;;;;;5030385;28;20025;-79
2023/05/27 07:06:05;;;;;;;15.00;4.80;;;;;;;;;;5007394;28;20407;-78
2023/05/27 07:08:37;;;;;;;10.68;3.33;;;;;;;;;;5007079;28;20035;-79
2023/05/27 07:11:26;;;;;;;9.23;2.15;;;;;;;;;;5021728;28;20062;-79
2023/05/27 07:13:54;;;;;;;11.88;2.97;;;;;;;;;;5007469;28;20029;-79
2023/05/27 07:16:23;;;;;;;11.98;3.00;;;;;;;;;;5025860;28;20124;-79
2023/05/27 07:18:48;;;;;;;10.07;2.22;;;;;;;;;;5021447;28;20072;-79
2023/05/27 07:21:13;;;;;;;11.25;2.97;;;;;;;;;;5010123;28;20040;-79
2023/05/27 07:23:39;;;;;;;12.77;2.83;;;;;;;;;;5022241;28;20041;-80
2023/05/27 07:26:21;;;;;;;8.90;2.25;;;;;;;;;;5027397;28;20049;-80
2023/05/27 07:28:46;;;;;;;9.50;2.42;;;;;;;;;;5009872;28;20533;-79
2023/05/27 07:31:30;;;;;;;7.57;2.83;;;;;;;;;;5023766;28;20037;-78
2023/05/27 07:34:00;;;;;;;8.98;2.70;;;;;;;;;;5010675;28;20388;-79
2023/05/27 07:36:25;;;;;;;11.15;2.65;;;;;;;;;;5027275;28;20040;-79
2023/05/27 07:38:50;;;;;;;8.98;2.60;;;;;;;;;;5023372;28;20029;-79
2023/05/27 07:41:15;;;;;;;12.32;2.40;;;;;;;;;;5015132;28;20030;-78
2023/05/27 07:43:42;;;;;;;9.98;2.70;;;;;;;;;;5026934;28;20491;-79
2023/05/27 07:46:07;;;;;;;8.60;2.65;;;;;;;;;;5029141;28;20030;-79
2023/05/27 07:48:35;;;;;;;11.73;2.72;;;;;;;;;;5026386;28;20022;-78
2023/05/27 07:51:00;;;;;;;9.27;2.60;;;;;;;;;;5026384;28;20124;-79
2023/05/27 07:53:26;;;;;;;11.77;2.45;;;;;;;;;;5024529;28;20061;-79
2023/05/27 07:55:51;;;;;;;11.25;2.92;;;;;;;;;;5010411;28;20037;-79
2023/05/27 07:58:16;;;;;;;12.15;2.97;;;;;;;;;;5027284;28;20033;-78
2023/05/27 08:00:50;;;;;;;11.90;2.88;;;;;;;;;;5031055;28;20034;-76
2023/05/27 08:03:16;;;;;;;8.25;2.30;;;;;;;;;;5045968;28;20116;-79
2023/05/27 08:06:07;;;;;;;9.10;2.10;;;;;;;;;;5025290;28;20503;-78
2023/05/27 08:08:59;;;;;;;10.03;2.13;;;;;;;;;;5011399;28;20314;-79
2023/05/27 08:11:34;;;;;;;10.77;2.58;;;;;;;;;;5008433;28;20037;-79
2023/05/27 08:14:20;;;;;;;15.07;2.55;;;;;;;;;;5025198;28;20128;-79
2023/05/27 08:16:58;;;;;;;9.85;2.53;;;;;;;;;;5026222;28;20034;-78
2023/05/27 08:19:55;;;;;;;9.45;2.30;;;;;;;;;;5007789;28;20034;-79
2023/05/27 08:22:41;;;;;;;11.35;2.40;;;;;;;;;;5026136;28;20029;-79
2023/05/27 08:25:29;;;;;;;9.48;2.55;;;;;;;;;;5024405;28;20488;-79
2023/05/27 08:28:13;;;;;;;7.30;1.98;;;;;;;;;;5027152;28;20044;-79
2023/05/27 08:30:57;;;;;;;9.25;2.28;;;;;;;;;;5026916;28;20033;-79
2023/05/27 08:33:29;;;;;;;9.20;2.00;;;;;;;;;;5025712;28;20041;-79
2023/05/27 08:35:55;;;;;;;5.38;1.80;;;;;;;;;;5022954;28;20049;-79
2023/05/27 08:38:20;;;;;;;8.48;2.10;;;;;;;;;;5025073;28;20441;-79
2023/05/27 08:40:47;;;;;;;8.88;2.30;;;;;;;;;;5033610;28;20033;-79
2023/05/27 08:43:13;;;;;;;8.55;1.95;;;;;;;;;;5024333;28;20044;-79
2023/05/27 08:45:43;;;;;;;6.13;1.92;;;;;;;;;;5008665;28;20030;-79
2023/05/27 08:48:09;;;;;;;7.05;2.42;;;;;;;;;;5024325;28;20026;-80
2023/05/27 08:50:36;;;;;;;8.65;1.92;;;;;;;;;;5025888;28;20103;-79
2023/05/27 08:53:03;;;;;;;7.50;2.22;;;;;;;;;;5032422;28;20034;-78
2023/05/27 08:55:29;;;;;;;10.07;2.28;;;;;;;;;;5045132;28;20565;-77
2023/05/27 08:57:55;;;;;;;7.55;2.00;;;;;;;;;;5045013;28;20049;-77
2023/05/27 09:00:22;;;;;;;9.50;2.53;;;;;;;;;;5021551;28;20384;-78
2023/05/27 09:02:49;;;;;;;7.18;2.22;;;;;;;;;;5024609;28;20025;-78
2023/05/27 09:05:16;;;;;;;10.30;2.10;;;;;;;;;;5020541;28;20032;-75
2023/05/27 09:07:42;;;;;;;7.32;2.47;;;;;;;;;;5029093;28;20033;-78
2023/05/27 09:10:07;;;;;;;7.00;1.90;;;;;;;;;;5021007;28;20434;-78
2023/05/27 09:12:33;;;;;;;6.25;2.00;;;;;;;;;;5026348;28;20038;-78
2023/05/27 09:14:58;;;;;;;6.68;1.58;;;;;;;;;;5024950;28;20117;-78
2023/05/27 09:17:24;;;;;;;6.80;2.22;;;;;;;;;;5026370;28;20034;-78
2023/05/27 09:19:52;;;;;;;7.80;1.88;;;;;;;;;;5024299;28;20041;-78
2023/05/27 09:22:20;;;;;;;9.93;2.60;;;;;;;;;;5026275;28;20491;-78
2023/05/27 09:24:45;;;;;;;5.85;1.80;;;;;;;;;;5026393;28;20040;-79
2023/05/27 09:27:10;;;;;;;9.90;2.05;;;;;;;;;;5027883;28;20029;-78
2023/05/27 09:29:37;;;;;;;7.07;1.83;;;;;;;;;;5024625;28;20136;-78
2023/05/27 09:32:03;;;;;;;7.60;2.13;;;;;;;;;;5026784;28;20030;-76
2023/05/27 09:34:29;;;;;;;8.63;1.98;;;;;;;;;;5026746;28;20033;-78
2023/05/27 09:36:54;;;;;;;6.88;1.95;;;;;;;;;;5033033;28;20095;-77
2023/05/27 09:39:22;;;;;;;9.13;2.08;;;;;;;;;;5032574;28;20479;-78
2023/05/27 09:41:52;;;;;;;7.35;2.08;;;;;;;;;;5022675;28;20038;-76
2023/05/27 09:44:17;;;;;;;6.28;2.10;;;;;;;;;;5030457;28;20033;-77
2023/05/27 09:46:44;;;;;;;8.80;2.28;;;;;;;;;;5024718;28;20163;-77
2023/05/27 09:49:10;;;;;;;6.13;1.80;;;;;;;;;;5020191;28;20026;-77
2023/05/27 09:51:36;;;;;;;6.47;1.88;;;;;;;;;;5025206;28;20082;-76
2023/05/27 09:54:02;;;;;;;8.45;2.47;;;;;;;;;;5028190;28;20103;-76
2023/05/27 09:56:28;;;;;;;8.70;2.92;;;;;;;;;;5016686;28;20077;-76
2023/05/27 09:58:57;;;;;;;10.63;2.10;;;;;;;;;;5024981;28;20040;-76
2023/05/27 10:01:28;;;;;;;8.02;2.50;;;;;;;;;;5022937;28;20483;-75
2023/05/27 10:03:53;;;;;;;7.50;2.08;;;;;;;;;;5021530;28;20427;-77
2023/05/27 10:06:19;;;;;;;9.13;2.15;;;;;;;;;;5022446;28;20025;-76
2023/05/27 10:08:44;;;;;;;7.32;1.85;;;;;;;;;;5021664;28;20487;-76
2023/05/27 10:11:13;;;;;;;8.55;2.25;;;;;;;;;;5023630;28;20026;-75
2023/05/27 10:13:38;;;;;;;6.05;1.80;;;;;;;;;;5020722;28;20025;-76
2023/05/27 10:16:03;;;;;;;7.47;2.22;;;;;;;;;;5020021;28;20069;-77
2023/05/27 10:18:29;;;;;;;7.90;2.35;;;;;;;;;;5023806;28;20036;-76
2023/05/27 10:20:56;;;;;;;6.80;2.40;;;;;;;;;;5022069;28;20029;-76
2023/05/27 10:23:25;;;;;;;8.63;1.88;;;;;;;;;;5020583;28;20038;-76
2023/05/27 10:25:52;;;;;;;9.13;2.40;;;;;;;;;;5021882;28;20067;-77
2023/05/27 10:28:27;;;;;;;7.65;2.28;;;;;;;;;;5026290;28;20060;-76
2023/05/27 10:30:53;;;;;;;8.18;2.35;;;;;;;;;;5021942;28;20034;-76
2023/05/27 10:33:31;;;;;;;6.65;1.98;;;;;;;;;;5022000;28;20594;-77
2023/05/27 10:36:02;;;;;;;8.57;2.28;;;;;;;;;;5022795;28;20494;-76
2023/05/27 10:38:27;;;;;;;7.05;1.83;;;;;;;;;;5020998;28;20503;-76
2023/05/27 10:40:58;;;;;;;6.18;2.28;;;;;;;;;;5019960;28;20040;-76
2023/05/27 10:43:26;;;;;;;6.70;1.95;;;;;;;;;;5023578;28;20042;-76
2023/05/27 10:46:00;;;;;;;4.85;1.70;;;;;;;;;;5021056;28;20026;-76
2023/05/27 10:48:30;;;;;;;7.97;2.00;;;;;;;;;;5022858;28;20022;-76
2023/05/27 10:50:57;;;;;;;6.30;1.90;;;;;;;;;;5021161;28;20131;-76
2023/05/27 10:53:22;;;;;;;8.52;1.90;;;;;;;;;;5023255;28;20502;-76
2023/05/27 10:55:51;;;;;;;6.65;1.80;;;;;;;;;;5019387;28;20034;-76
2023/05/27 10:58:17;;;;;;;6.63;2.08;;;;;;;;;;5025011;28;20034;-77
2023/05/27 11:00:43;;;;;;;7.80;2.50;;;;;;;;;;5018240;28;20037;-76
2023/05/27 11:03:26;;;;;;;7.97;2.40;;;;;;;;;;5022614;28;20025;-76
2023/05/27 11:06:04;;;;;;;6.90;2.25;;;;;;;;;;5022139;28;20373;-76
2023/05/27 11:08:30;;;;;;;6.80;2.05;;;;;;;;;;5025500;28;20041;-76
2023/05/27 11:10:59;;;;;;;6.43;1.95;;;;;;;;;;5026602;28;20022;-76
2023/05/27 11:13:34;;;;;;;6.18;1.90;;;;;;;;;;5025482;28;20391;-76
2023/05/27 11:16:02;;;;;;;5.80;1.95;;;;;;;;;;5027560;28;20042;-76
2023/05/27 11:18:34;;;;;;;6.03;2.25;;;;;;;;;;5026622;28;20060;-76
2023/05/27 11:21:01;;;;;;;5.68;1.80;;;;;;;;;;5029096;28;20067;-77
2023/05/27 11:23:36;;;;;;;5.03;1.75;;;;;;;;;;5025824;28;20048;-76
2023/05/27 11:26:01;;;;;;;6.15;1.88;;;;;;;;;;5024681;28;20396;-76
2023/05/27 11:28:26;;;;;;;5.00;2.03;;;;;;;;;;5026927;28;20068;-76
2023/05/27 11:30:57;;;;;;;7.75;2.38;;;;;;;;;;5026162;28;20033;-77
2023/05/27 11:33:35;;;;;;;4.85;1.75;;;;;;;;;;5026487;28;20402;-75
2023/05/27 11:36:04;;;;;;;9.55;2.10;;;;;;;;;;5023225;28;20037;-76
2023/05/27 11:38:29;;;;;;;4.57;2.00;;;;;;;;;;5025073;28;20044;-77
2023/05/27 11:40:55;;;;;;;6.40;2.20;;;;;;;;;;5026064;28;20030;-76
2023/05/27 11:43:20;;;;;;;5.75;2.00;;;;;;;;;;5023429;28;20268;-76
2023/05/27 11:45:45;;;;;;;5.85;1.80;;;;;;;;;;5027370;28;20038;-76
2023/05/27 11:48:11;;;;;;;6.60;2.17;;;;;;;;;;5027200;28;20080;-76
2023/05/27 11:50:36;;;;;;;6.47;2.28;;;;;;;;;;5023741;28;20354;-77
2023/05/27 11:53:02;;;;;;;4.20;2.03;;;;;;;;;;5027512;28;20104;-77
2023/05/27 11:55:29;;;;;;;4.50;1.80;;;;;;;;;;5023982;28;20285;-76
2023/05/27 11:57:54;;;;;;;4.85;1.73;;;;;;;;;;5025894;28;20038;-76
2023/05/27 12:00:20;;;;;;;4.17;1.93;;;;;;;;;;5025538;28;20423;-76
2023/05/27 12:02:45;;;;;;;5.30;2.58;;;;;;;;;;5025405;28;20782;-76
2023/05/27 12:05:11;;;;;;;4.88;1.88;;;;;;;;;;5023946;28;20083;-76
2023/05/27 12:07:39;;;;;;;6.47;2.17;;;;;;;;;;5024541;28;20037;-77
2023/05/27 12:10:05;;;;;;;4.65;2.00;;;;;;;;;;5021098;28;20292;-76
2023/05/27 12:12:33;;;;;;;5.10;1.95;;;;;;;;;;5025854;28;20445;-77
2023/05/27 12:14:59;;;;;;;5.18;2.17;;;;;;;;;;5022697;28;20091;-77
2023/05/27 12:17:24;;;;;;;4.93;2.00;;;;;;;;;;5025837;28;20045;-77
2023/05/27 12:19:50;;;;;;;4.37;2.30;;;;;;;;;;5020876;28;20121;-77
2023/05/27 12:22:15;;;;;;;4.57;2.00;;;;;;;;;;5025707;28;20370;-76
2023/05/27 12:24:40;;;;;;;7.22;2.58;;;;;;;;;;5026997;28;20029;-77
2023/05/27 12:27:05;;;;;;;4.87;2.17;;;;;;;;;;5026040;28;20364;-76
2023/05/27 12:29:30;;;;;;;5.87;2.27;;;;;;;;;;5021817;28;20273;-77
2023/05/27 12:31:56;;;;;;;5.05;2.10;;;;;;;;;;5025339;28;20292;-77
2023/05/27 12:34:21;;;;;;;5.13;2.00;;;;;;;;;;5022099;28;20029;-77
2023/05/27 12:36:47;;;;;;;6.32;2.08;;;;;;;;;;5026835;28;20509;-77
2023/05/27 12:39:12;;;;;;;4.22;2.30;;;;;;;;;;5026695;28;20028;-77
2023/05/27 12:41:38;;;;;;;5.45;1.90;;;;;;;;;;5027241;28;20033;-76
2023/05/27 12:44:03;;;;;;;4.72;2.75;;;;;;;;;;5021284;28;20048;-77
2023/05/27 12:46:28;;;;;;;5.75;2.10;;;;;;;;;;5021860;28;20035;-76
2023/05/27 12:48:53;;;;;;;7.28;2.33;;;;;;;;;;5024032;28;20033;-77
2023/05/27 12:51:19;;;;;;;7.67;1.90;;;;;;;;;;5024104;28;20547;-76
2023/05/27 12:53:44;;;;;;;5.07;2.17;;;;;;;;;;5025104;28;20291;-76
2023/05/27 12:56:09;;;;;;;4.67;2.00;;;;;;;;;;5024428;28;20279;-77
2023/05/27 12:58:34;;;;;;;4.95;2.35;;;;;;;;;;5022993;28;20281;-77
2023/05/27 13:01:00;;;;;;;4.73;2.37;;;;;;;;;;5024173;28;20057;-77
2023/05/27 13:03:25;;;;;;;5.18;1.90;;;;;;;;;;5022443;28;20486;-77
2023/05/27 13:05:51;;;;;;;4.38;2.15;;;;;;;;;;5024205;28;20026;-77
2023/05/27 13:08:16;;;;;;;3.67;1.90;;;;;;;;;;5021552;28;20124;-76
2023/05/27 13:10:41;;;;;;;6.57;2.30;;;;;;;;;;5027373;28;20454;-77
2023/05/27 13:13:06;;;;;;;5.20;2.30;;;;;;;;;;5024632;28;20030;-77
2023/05/27 13:15:32;;;;;;;6.32;2.40;;;;;;;;;;5023028;28;20029;-77
2023/05/27 13:17:59;;;;;;;5.25;2.28;;;;;;;;;;5022295;28;20596;-77
2023/05/27 13:20:24;;;;;;;4.53;2.05;;;;;;;;;;5023794;28;20048;-75
2023/05/27 13:22:50;;;;;;;4.45;2.17;;;;;;;;;;5022188;28;20438;-75
2023/05/27 13:25:16;;;;;;;5.00;2.10;;;;;;;;;;5020771;28;20041;-75
2023/05/27 13:27:42;;;;;;;4.93;2.20;;;;;;;;;;5024043;28;20091;-75
2023/05/27 13:30:07;;;;;;;4.03;2.28;;;;;;;;;;5021245;28;20069;-75
2023/05/27 13:32:33;;;;;;;4.28;2.13;;;;;;;;;;5024082;28;20030;-74
2023/05/27 13:34:58;;;;;;;4.28;1.98;;;;;;;;;;5022420;28;20037;-75
2023/05/27 13:37:23;;;;;;;4.30;2.30;;;;;;;;;;5021354;28;20033;-75
2023/05/27 13:39:49;;;;;;;6.07;2.30;;;;;;;;;;5013831;28;20034;-76
2023/05/27 13:42:14;;;;;;;4.93;2.50;;;;;;;;;;5023926;28;20136;-75
2023/05/27 13:44:39;;;;;;;4.57;2.22;;;;;;;;;;5018765;28;20064;-75
2023/05/27 13:47:05;;;;;;;4.97;2.20;;;;;;;;;;5020901;28;20064;-75
2023/05/27 13:49:30;;;;;;;4.68;2.28;;;;;;;;;;5022461;28;20029;-75
2023/05/27 13:51:56;;;;;;;4.00;2.25;;;;;;;;;;5020748;28;20054;-75
2023/05/27 13:54:21;;;;;;;4.47;2.72;;;;;;;;;;5023532;28;20108;-74
2023/05/27 13:56:46;;;;;;;5.23;2.27;;;;;;;;;;5023274;28;20079;-76
2023/05/27 13:59:12;;;;;;;5.03;2.17;;;;;;;;;;5029905;28;20033;-75
2023/05/27 14:01:38;;;;;;;4.28;2.15;;;;;;;;;;5020337;28;20041;-75
2023/05/27 14:04:03;;;;;;;4.65;2.30;;;;;;;;;;5022893;28;20049;-76
2023/05/27 14:06:28;;;;;;;4.20;2.17;;;;;;;;;;5022246;28;20033;-75
2023/05/27 14:08:53;;;;;;;4.73;2.53;;;;;;;;;;5023199;28;20677;-75
2023/05/27 14:11:19;;;;;;;6.80;2.58;;;;;;;;;;5019841;28;20523;-76
2023/05/27 14:13:44;;;;;;;3.90;2.30;;;;;;;;;;5023147;28;20025;-75
2023/05/27 14:16:09;;;;;;;7.30;2.50;;;;;;;;;;5019242;28;20507;-76
2023/05/27 14:18:35;;;;;;;4.37;2.30;;;;;;;;;;5029940;28;20033;-76
2023/05/27 14:21:01;;;;;;;4.78;2.25;;;;;;;;;;5023050;28;20537;-75
2023/05/27 14:23:26;;;;;;;5.43;2.40;;;;;;;;;;5019402;28;20045;-75
2023/05/27 14:25:51;;;;;;;5.43;2.57;;;;;;;;;;5023182;28;20099;-76
2023/05/27 14:28:16;;;;;;;4.60;2.37;;;;;;;;;;5023705;28;20487;-76
2023/05/27 14:30:41;;;;;;;4.37;2.10;;;;;;;;;;5019178;28;20109;-76
2023/05/27 14:33:07;;;;;;;5.20;2.50;;;;;;;;;;5021651;28;20442;-76
2023/05/27 14:35:33;;;;;;;6.13;5.00;;;;;;;;;;5023070;28;20029;-75
2023/05/27 14:37:58;;;;;;;5.35;2.67;;;;;;;;;;5026031;28;20132;-75